Terminal Aerodrome Forecast
Issued by NWS Atlanta, GA

Home | Current Version | Previous Version | Text Only | Print | Product List | Glossary On
Versions: 1 2 3 4 5 6 7 8 9 10 11 12 13 14 15 16 17 18 19 20 21
000
FTUS42 KFFC 250544
TAFMCN
TAF
KMCN 250544Z 2506/2606 23010KT P6SM FEW070 SCT100
     FM250900 20010KT P6SM BKN015
     FM251300 21010KT P6SM VCSH BKN015
     FM251500 22012KT 5SM -SHRA OVC015
      TEMPO 2516/2518 4SM TSRA BKN010CB
     FM252100 28005KT P6SM -SHRA OVC025
     FM260100 09002KT 6SM BR VCSH OVC015
     FM260500 03003KT 3SM -RA BR OVC009=

USA.gov is the U.S. government's official web portal to all federal, state and local government web resources and services.